Wolke Sonne

Wetter Ammerndorf

Gehe zu: Roßtal

Tageswerte vom Freitag, 11.03.2022

Optionen

Tag:
Erweitert:

Alle Werte vom Freitag, 11.03.2022

Einen Moment bitte, die Daten werden aufbereitet...

UhrzeitTemperaturBoden 10cmBoden 20cmFeuchteLuftdruckNiederschlagEvapotranspirationWindWindböenWindrichtungSolarstrahlungUV-IndexSonne?Uhrzeit
Diagramm IconDiagramm IconDiagramm IconDiagramm IconDiagramm IconDiagramm IconDiagramm IconDiagramm IconDiagramm IconDiagramm IconDiagramm IconDiagramm IconDiagramm Icon
00:001,6 °C 3,3 °C 3,3 °C 71 % 1025,5 hPa 0,0 mm - 3,2 km/h 7,9 km/h SSW 0,0 W/qm 0,0 nein 00:00
00:052,0 °C 3,3 °C 3,3 °C 70 % 1025,5 hPa 0,0 mm 0,0 mm 3,2 km/h 7,9 km/h S 0,0 W/qm 0,0 nein 00:05
00:102,2 °C 3,3 °C 3,3 °C 69 % 1025,4 hPa 0,0 mm 0,0 mm 3,2 km/h 7,9 km/h SSW 0,0 W/qm 0,0 nein 00:10
00:152,1 °C 3,3 °C 3,3 °C 69 % 1025,3 hPa 0,0 mm - 1,4 km/h 7,9 km/h SW 0,0 W/qm 0,0 nein 00:15
00:202,1 °C 3,3 °C 3,3 °C 68 % 1025,4 hPa 0,0 mm - 1,4 km/h 7,9 km/h SW 0,0 W/qm 0,0 nein 00:20
00:252,1 °C 3,3 °C 3,3 °C 69 % 1025,4 hPa 0,0 mm - 1,4 km/h 6,5 km/h S 0,0 W/qm 0,0 nein 00:25
00:302,2 °C 3,3 °C 3,3 °C 68 % 1025,4 hPa 0,0 mm - 3,2 km/h 4,7 km/h S 0,0 W/qm 0,0 nein 00:30
00:352,3 °C 3,3 °C 3,3 °C 68 % 1025,5 hPa 0,0 mm - 3,2 km/h 11,2 km/h SO 0,0 W/qm 0,0 nein 00:35
00:402,4 °C 2,8 °C 3,3 °C 67 % 1025,5 hPa 0,0 mm - 3,2 km/h 11,2 km/h S 0,0 W/qm 0,0 nein 00:40
00:452,3 °C 2,8 °C 3,3 °C 67 % 1025,5 hPa 0,0 mm - 3,2 km/h 11,2 km/h S 0,0 W/qm 0,0 nein 00:45
00:502,4 °C 2,8 °C 3,3 °C 67 % 1025,5 hPa 0,0 mm - 3,2 km/h 9,7 km/h SSW 0,0 W/qm 0,0 nein 00:50
00:552,3 °C 2,8 °C 3,3 °C 67 % 1025,4 hPa 0,0 mm - 3,2 km/h 9,7 km/h SSO 0,0 W/qm 0,0 nein 00:55
01:002,2 °C 2,8 °C 3,3 °C 67 % 1025,4 hPa 0,0 mm - 3,2 km/h 9,7 km/h SO 0,0 W/qm 0,0 nein 01:00
01:052,1 °C 2,8 °C 3,3 °C 68 % 1025,4 hPa 0,0 mm 0,0 mm 3,2 km/h 9,7 km/h S 0,0 W/qm 0,0 nein 01:05
01:102,1 °C 2,8 °C 3,3 °C 68 % 1025,3 hPa 0,0 mm 0,0 mm 3,2 km/h 9,7 km/h S 0,0 W/qm 0,0 nein 01:10
01:151,9 °C 2,8 °C 3,3 °C 68 % 1025,4 hPa 0,0 mm - 3,2 km/h 9,7 km/h S 0,0 W/qm 0,0 nein 01:15
01:201,8 °C 2,8 °C 3,3 °C 69 % 1025,5 hPa 0,0 mm - 3,2 km/h 7,9 km/h S 0,0 W/qm 0,0 nein 01:20
01:251,8 °C 2,8 °C 3,3 °C 69 % 1025,5 hPa 0,0 mm - 3,2 km/h 7,9 km/h S 0,0 W/qm 0,0 nein 01:25
01:301,7 °C 2,8 °C 3,3 °C 69 % 1025,4 hPa 0,0 mm - 3,2 km/h 9,7 km/h SSO 0,0 W/qm 0,0 nein 01:30
01:351,6 °C 2,8 °C 3,3 °C 69 % 1025,5 hPa 0,0 mm - 4,7 km/h 11,2 km/h S 0,0 W/qm 0,0 nein 01:35
01:401,5 °C 2,8 °C 3,3 °C 69 % 1025,5 hPa 0,0 mm - 3,2 km/h 11,2 km/h S 0,0 W/qm 0,0 nein 01:40
01:451,4 °C 2,8 °C 3,3 °C 70 % 1025,4 hPa 0,0 mm - 3,2 km/h 11,2 km/h S 0,0 W/qm 0,0 nein 01:45
01:501,4 °C 2,8 °C 3,3 °C 70 % 1025,4 hPa 0,0 mm - 3,2 km/h 9,7 km/h SSO 0,0 W/qm 0,0 nein 01:50
01:551,3 °C 2,8 °C 3,3 °C 70 % 1025,4 hPa 0,0 mm - 1,4 km/h 9,7 km/h WSW 0,0 W/qm 0,0 nein 01:55
UhrzeitTemperaturBoden 10cmBoden 20cmFeuchteLuftdruckNiederschlagEvapotranspirationWindWindböenWindrichtungSolarstrahlungUV-IndexSonne?Uhrzeit
02:001,2 °C 2,8 °C 3,3 °C 70 % 1025,3 hPa 0,0 mm - 1,4 km/h 9,7 km/h S 0,0 W/qm 0,0 nein 02:00
02:051,1 °C 2,8 °C 3,3 °C 70 % 1025,4 hPa 0,0 mm 0,0 mm 3,2 km/h 9,7 km/h SO 0,0 W/qm 0,0 nein 02:05
02:101,1 °C 2,8 °C 3,3 °C 70 % 1025,3 hPa 0,0 mm 0,0 mm 3,2 km/h 6,5 km/h SSW 0,0 W/qm 0,0 nein 02:10
02:150,9 °C 2,8 °C 3,3 °C 70 % 1025,3 hPa 0,0 mm - 3,2 km/h 6,5 km/h SW 0,0 W/qm 0,0 nein 02:15
02:200,8 °C 2,8 °C 3,3 °C 70 % 1025,3 hPa 0,0 mm - 3,2 km/h 6,5 km/h S 0,0 W/qm 0,0 nein 02:20
02:250,7 °C 2,8 °C 3,3 °C 70 % 1025,3 hPa 0,0 mm - 3,2 km/h 6,5 km/h SSW 0,0 W/qm 0,0 nein 02:25
02:300,7 °C 2,8 °C 3,3 °C 70 % 1025,3 hPa 0,0 mm - 3,2 km/h 7,9 km/h S 0,0 W/qm 0,0 nein 02:30
02:350,6 °C 2,8 °C 3,3 °C 70 % 1025,3 hPa 0,0 mm - 1,4 km/h 7,9 km/h S 0,0 W/qm 0,0 nein 02:35
02:400,4 °C 2,8 °C 3,3 °C 70 % 1025,3 hPa 0,0 mm - 1,4 km/h 7,9 km/h S 0,0 W/qm 0,0 nein 02:40
02:450,3 °C 2,8 °C 3,3 °C 71 % 1025,4 hPa 0,0 mm - 3,2 km/h 7,9 km/h S 0,0 W/qm 0,0 nein 02:45
02:500,2 °C 2,8 °C 3,3 °C 71 % 1025,3 hPa 0,0 mm - 1,4 km/h 7,9 km/h SSW 0,0 W/qm 0,0 nein 02:50
02:550,1 °C 2,8 °C 3,3 °C 71 % 1025,2 hPa 0,0 mm - 0,0 km/h 7,9 km/h S 0,0 W/qm 0,0 nein 02:55
03:00-0,1 °C 2,8 °C 3,3 °C 71 % 1025,3 hPa 0,0 mm - 1,4 km/h 4,7 km/h SW 0,0 W/qm 0,0 nein 03:00
03:05-0,3 °C 2,8 °C 3,3 °C 71 % 1025,3 hPa 0,0 mm 0,0 mm 1,4 km/h 6,5 km/h S 0,0 W/qm 0,0 nein 03:05
03:10-0,6 °C 2,8 °C 3,3 °C 72 % 1025,3 hPa 0,0 mm 0,0 mm 0,0 km/h 6,5 km/h SSO 0,0 W/qm 0,0 nein 03:10
03:15-0,9 °C 2,8 °C 3,3 °C 73 % 1025,4 hPa 0,0 mm - 0,0 km/h 6,5 km/h SSO 0,0 W/qm 0,0 nein 03:15
03:20-0,9 °C 2,8 °C 3,3 °C 74 % 1025,3 hPa 0,0 mm - 0,0 km/h 4,7 km/h OSO 0,0 W/qm 0,0 nein 03:20
03:25-0,8 °C 2,8 °C 3,3 °C 73 % 1025,3 hPa 0,0 mm - 0,0 km/h 6,5 km/h OSO 0,0 W/qm 0,0 nein 03:25
03:30-0,9 °C 2,8 °C 3,3 °C 74 % 1025,3 hPa 0,0 mm - 0,0 km/h 6,5 km/h WSW 0,0 W/qm 0,0 nein 03:30
03:35-1,2 °C 2,8 °C 3,3 °C 74 % 1025,3 hPa 0,0 mm - 0,0 km/h 6,5 km/h WSW 0,0 W/qm 0,0 nein 03:35
03:40-1,2 °C 2,8 °C 3,3 °C 74 % 1025,2 hPa 0,0 mm - 0,0 km/h 6,5 km/h SW 0,0 W/qm 0,0 nein 03:40
03:45-1,0 °C 2,8 °C 3,3 °C 74 % 1025,2 hPa 0,0 mm - 1,4 km/h 4,7 km/h SSW 0,0 W/qm 0,0 nein 03:45
03:50-0,8 °C 2,8 °C 3,3 °C 72 % 1025,1 hPa 0,0 mm - 1,4 km/h 6,5 km/h SSO 0,0 W/qm 0,0 nein 03:50
03:55-1,0 °C 2,8 °C 3,3 °C 72 % 1025,0 hPa 0,0 mm - 1,4 km/h 6,5 km/h SSO 0,0 W/qm 0,0 nein 03:55
UhrzeitTemperaturBoden 10cmBoden 20cmFeuchteLuftdruckNiederschlagEvapotranspirationWindWindböenWindrichtungSolarstrahlungUV-IndexSonne?Uhrzeit
04:00-1,3 °C 2,8 °C 3,3 °C 73 % 1025,0 hPa 0,0 mm - 0,0 km/h 6,5 km/h SSO 0,0 W/qm 0,0 nein 04:00
04:05-1,7 °C 2,8 °C 3,3 °C 74 % 1025,1 hPa 0,0 mm 0,0 mm 0,0 km/h 6,5 km/h SSO 0,0 W/qm 0,0 nein 04:05
04:10-1,8 °C 2,8 °C 3,3 °C 75 % 1025,1 hPa 0,0 mm 0,0 mm 0,0 km/h 1,4 km/h SSO 0,0 W/qm 0,0 nein 04:10
04:15-2,1 °C 2,8 °C 3,3 °C 76 % 1025,1 hPa 0,0 mm - 0,0 km/h 1,4 km/h SSO 0,0 W/qm 0,0 nein 04:15
04:20-2,3 °C 2,8 °C 3,3 °C 76 % 1025,2 hPa 0,0 mm - 0,0 km/h 1,4 km/h SSO 0,0 W/qm 0,0 nein 04:20
04:25-2,3 °C 2,8 °C 3,3 °C 77 % 1025,1 hPa 0,0 mm - 0,0 km/h 1,4 km/h SSO 0,0 W/qm 0,0 nein 04:25
04:30-2,6 °C 2,8 °C 3,3 °C 78 % 1025,1 hPa 0,0 mm - 0,0 km/h 0,0 km/h SSO 0,0 W/qm 0,0 nein 04:30
04:35-2,6 °C 2,8 °C 3,3 °C 78 % 1025,1 hPa 0,0 mm - 0,0 km/h 0,0 km/h SSO 0,0 W/qm 0,0 nein 04:35
04:40-2,4 °C 2,8 °C 3,3 °C 79 % 1025,0 hPa 0,0 mm - 0,0 km/h 1,4 km/h SSO 0,0 W/qm 0,0 nein 04:40
04:45-2,2 °C 2,8 °C 3,3 °C 78 % 1025,0 hPa 0,0 mm - 0,0 km/h 4,7 km/h SSO 0,0 W/qm 0,0 nein 04:45
04:50-2,1 °C 2,2 °C 3,3 °C 78 % 1024,9 hPa 0,0 mm - 0,0 km/h 4,7 km/h S 0,0 W/qm 0,0 nein 04:50
04:55-1,9 °C 2,2 °C 3,3 °C 78 % 1024,9 hPa 0,0 mm - 1,4 km/h 4,7 km/h S 0,0 W/qm 0,0 nein 04:55
05:00-1,6 °C 2,2 °C 3,3 °C 77 % 1024,9 hPa 0,0 mm - 0,0 km/h 4,7 km/h S 0,0 W/qm 0,0 nein 05:00
05:05-1,5 °C 2,2 °C 3,3 °C 76 % 1024,8 hPa 0,0 mm 0,0 mm 1,4 km/h 4,7 km/h S 0,0 W/qm 0,0 nein 05:05
05:10-1,6 °C 2,2 °C 3,3 °C 76 % 1024,9 hPa 0,0 mm 0,0 mm 1,4 km/h 6,5 km/h S 0,0 W/qm 0,0 nein 05:10
05:15-1,7 °C 2,2 °C 3,3 °C 76 % 1024,8 hPa 0,0 mm - 1,4 km/h 6,5 km/h S 0,0 W/qm 0,0 nein 05:15
05:20-2,0 °C 2,2 °C 3,3 °C 76 % 1024,8 hPa 0,0 mm - 1,4 km/h 6,5 km/h SSW 0,0 W/qm 0,0 nein 05:20
05:25-2,1 °C 2,2 °C 3,3 °C 77 % 1024,8 hPa 0,0 mm - 1,4 km/h 6,5 km/h W 0,0 W/qm 0,0 nein 05:25
05:30-2,2 °C 2,2 °C 3,3 °C 76 % 1024,9 hPa 0,0 mm - 1,4 km/h 6,5 km/h WSW 0,0 W/qm 0,0 nein 05:30
05:35-2,3 °C 2,2 °C 3,3 °C 76 % 1024,9 hPa 0,0 mm - 0,0 km/h 6,5 km/h NO 0,0 W/qm 0,0 nein 05:35
05:40-2,4 °C 2,2 °C 3,3 °C 76 % 1024,9 hPa 0,0 mm - 0,0 km/h 4,7 km/h NO 0,0 W/qm 0,0 nein 05:40
05:45-2,7 °C 2,2 °C 3,3 °C 77 % 1024,8 hPa 0,0 mm - 0,0 km/h 4,7 km/h NNO 0,0 W/qm 0,0 nein 05:45
05:50-2,8 °C 2,2 °C 3,3 °C 77 % 1024,9 hPa 0,0 mm - 0,0 km/h 4,7 km/h NNO 0,0 W/qm 0,0 nein 05:50
05:55-2,9 °C 2,2 °C 3,3 °C 77 % 1025,0 hPa 0,0 mm - 0,0 km/h 3,2 km/h SSO 0,0 W/qm 0,0 nein 05:55
UhrzeitTemperaturBoden 10cmBoden 20cmFeuchteLuftdruckNiederschlagEvapotranspirationWindWindböenWindrichtungSolarstrahlungUV-IndexSonne?Uhrzeit
06:00-2,7 °C 2,2 °C 3,3 °C 77 % 1024,8 hPa 0,0 mm - 0,0 km/h 3,2 km/h ONO 0,0 W/qm 0,0 nein 06:00
06:05-2,8 °C 2,2 °C 3,3 °C 76 % 1024,8 hPa 0,0 mm 0,0 mm 0,0 km/h 4,7 km/h OSO 0,0 W/qm 0,0 nein 06:05
06:10-3,1 °C 2,2 °C 3,3 °C 77 % 1024,9 hPa 0,0 mm 0,0 mm 0,0 km/h 4,7 km/h NW 0,0 W/qm 0,0 nein 06:10
06:15-3,3 °C 2,2 °C 3,3 °C 77 % 1024,9 hPa 0,0 mm - 0,0 km/h 4,7 km/h N 0,0 W/qm 0,0 nein 06:15
06:20-3,4 °C 2,2 °C 3,3 °C 78 % 1024,8 hPa 0,0 mm - 0,0 km/h 4,7 km/h NNO 0,0 W/qm 0,0 nein 06:20
06:25-3,6 °C 2,2 °C 3,3 °C 78 % 1024,9 hPa 0,0 mm - 0,0 km/h 6,5 km/h NNO 0,0 W/qm 0,0 nein 06:25
06:30-3,5 °C 2,2 °C 3,3 °C 78 % 1024,8 hPa 0,0 mm - 0,0 km/h 6,5 km/h NNO 0,0 W/qm 0,0 nein 06:30
06:35-3,6 °C 2,2 °C 3,3 °C 78 % 1025,0 hPa 0,0 mm - 0,0 km/h 3,2 km/h NNO 5,0 W/qm 0,0 nein 06:35
06:40-3,6 °C 2,2 °C 3,3 °C 78 % 1025,1 hPa 0,0 mm - 0,0 km/h 3,2 km/h NNO 7,0 W/qm 0,0 nein 06:40
06:45-3,7 °C 2,2 °C 3,3 °C 78 % 1025,1 hPa 0,0 mm - 0,0 km/h 3,2 km/h ONO 9,0 W/qm 0,0 nein 06:45
06:50-3,7 °C 2,2 °C 3,3 °C 78 % 1025,2 hPa 0,0 mm - 0,0 km/h 1,4 km/h ONO 12,0 W/qm 0,0 nein 06:50
06:55-3,7 °C 2,2 °C 3,3 °C 77 % 1025,2 hPa 0,0 mm - 0,0 km/h 4,7 km/h ONO 14,0 W/qm 0,0 nein 06:55
07:00-3,6 °C 2,2 °C 3,3 °C 77 % 1025,3 hPa 0,0 mm - 0,0 km/h 4,7 km/h ONO 16,0 W/qm 0,0 nein 07:00
07:05-3,5 °C 2,2 °C 2,8 °C 76 % 1025,1 hPa 0,0 mm 0,0 mm 0,0 km/h 3,2 km/h NNO 19,0 W/qm 0,0 nein 07:05
07:10-3,6 °C 2,2 °C 2,8 °C 76 % 1025,2 hPa 0,0 mm 0,0 mm 0,0 km/h 4,7 km/h NNO 21,0 W/qm 0,0 nein 07:10
07:15-3,6 °C 2,2 °C 2,8 °C 76 % 1025,2 hPa 0,0 mm - 0,0 km/h 4,7 km/h SW 23,0 W/qm 0,0 nein 07:15
07:20-3,5 °C 2,2 °C 2,8 °C 75 % 1025,3 hPa 0,0 mm - 0,0 km/h 4,7 km/h SO 25,0 W/qm 0,0 nein 07:20
07:25-3,6 °C 2,2 °C 2,8 °C 75 % 1025,3 hPa 0,0 mm - 0,0 km/h 3,2 km/h SSO 26,0 W/qm 0,0 nein 07:25
07:30-3,2 °C 2,2 °C 2,8 °C 74 % 1025,2 hPa 0,0 mm - 0,0 km/h 3,2 km/h SSO 28,0 W/qm 0,0 nein 07:30
07:35-2,8 °C 2,2 °C 2,8 °C 71 % 1025,2 hPa 0,0 mm - 0,0 km/h 1,4 km/h S 30,0 W/qm 0,0 nein 07:35
07:40-2,4 °C 2,2 °C 2,8 °C 69 % 1025,2 hPa 0,0 mm - 1,4 km/h 7,9 km/h SSW 32,0 W/qm 0,0 nein 07:40
07:45-2,2 °C 2,2 °C 2,8 °C 68 % 1025,1 hPa 0,0 mm - 1,4 km/h 7,9 km/h SSW 33,0 W/qm 0,0 nein 07:45
07:50-2,1 °C 2,2 °C 2,8 °C 67 % 1025,1 hPa 0,0 mm - 3,2 km/h 7,9 km/h S 39,0 W/qm 0,0 nein 07:50
07:55-1,9 °C 2,2 °C 2,8 °C 66 % 1025,0 hPa 0,0 mm - 3,2 km/h 9,7 km/h S 44,0 W/qm 0,0 nein 07:55
UhrzeitTemperaturBoden 10cmBoden 20cmFeuchteLuftdruckNiederschlagEvapotranspirationWindWindböenWindrichtungSolarstrahlungUV-IndexSonne?Uhrzeit
08:00-1,7 °C 2,2 °C 2,8 °C 66 % 1025,1 hPa 0,0 mm - 1,4 km/h 9,7 km/h S 47,0 W/qm 0,0 nein 08:00
08:05-1,4 °C 2,2 °C 2,8 °C 65 % 1024,9 hPa 0,0 mm 0,0 mm 1,4 km/h 6,5 km/h O 49,0 W/qm 0,0 nein 08:05
08:10-1,2 °C 2,2 °C 2,8 °C 63 % 1024,9 hPa 0,0 mm 0,0 mm 1,4 km/h 6,5 km/h SW 51,0 W/qm 0,0 nein 08:10
08:15-0,9 °C 2,2 °C 2,8 °C 63 % 1024,9 hPa 0,0 mm - 3,2 km/h 7,9 km/h S 51,0 W/qm 0,0 nein 08:15
08:20-0,8 °C 2,2 °C 2,8 °C 61 % 1025,0 hPa 0,0 mm - 4,7 km/h 9,7 km/h SSW 49,0 W/qm 0,0 nein 08:20
08:25-0,7 °C 2,2 °C 2,8 °C 60 % 1024,9 hPa 0,0 mm - 3,2 km/h 9,7 km/h SSO 54,0 W/qm 0,0 nein 08:25
08:30-0,5 °C 2,2 °C 2,8 °C 60 % 1024,9 hPa 0,0 mm - 1,4 km/h 11,2 km/h SSO 54,0 W/qm 0,0 nein 08:30
08:35-0,3 °C 2,2 °C 2,8 °C 59 % 1024,9 hPa 0,0 mm - 1,4 km/h 11,2 km/h SO 56,0 W/qm 0,5 nein 08:35
08:40-0,1 °C 2,2 °C 2,8 °C 58 % 1024,9 hPa 0,0 mm - 3,2 km/h 11,2 km/h S 287,0 W/qm 0,5 ja 08:40
08:450,2 °C 2,2 °C 2,8 °C 58 % 1024,8 hPa 0,0 mm - 3,2 km/h 11,2 km/h WSW 308,0 W/qm 0,6 ja 08:45
08:500,4 °C 2,2 °C 2,8 °C 57 % 1024,8 hPa 0,0 mm - 3,2 km/h 13,0 km/h SSO 323,0 W/qm 0,6 ja 08:50
08:550,6 °C 2,2 °C 2,8 °C 56 % 1024,6 hPa 0,0 mm - 3,2 km/h 13,0 km/h O 334,0 W/qm 0,6 ja 08:55
09:000,9 °C 2,2 °C 2,8 °C 55 % 1024,7 hPa 0,0 mm - 3,2 km/h 13,0 km/h SSW 348,0 W/qm 0,7 ja 09:00
09:050,9 °C 2,2 °C 2,8 °C 55 % 1024,7 hPa 0,0 mm 0,1 mm 4,7 km/h 7,9 km/h SSO 362,0 W/qm 0,7 ja 09:05
09:101,2 °C 2,2 °C 2,8 °C 54 % 1024,6 hPa 0,0 mm 0,1 mm 4,7 km/h 11,2 km/h SSO 376,0 W/qm 0,8 ja 09:10
09:151,4 °C 2,2 °C 2,8 °C 52 % 1024,5 hPa 0,0 mm - 4,7 km/h 11,2 km/h ONO 388,0 W/qm 0,8 ja 09:15
09:201,7 °C 2,2 °C 2,8 °C 51 % 1024,5 hPa 0,0 mm - 4,7 km/h 11,2 km/h SO 403,0 W/qm 0,9 ja 09:20
09:252,0 °C 2,2 °C 2,8 °C 51 % 1024,3 hPa 0,0 mm - 4,7 km/h 11,2 km/h SSO 417,0 W/qm 0,9 ja 09:25
09:302,3 °C 1,7 °C 2,8 °C 49 % 1024,3 hPa 0,0 mm - 6,5 km/h 13,0 km/h SSO 427,0 W/qm 1,0 ja 09:30
09:352,7 °C 1,7 °C 2,8 °C 50 % 1024,2 hPa 0,0 mm - 6,5 km/h 17,6 km/h NNO 439,0 W/qm 1,0 ja 09:35
09:403,0 °C 1,7 °C 2,8 °C 47 % 1024,2 hPa 0,0 mm - 6,5 km/h 17,6 km/h S 443,0 W/qm 1,0 ja 09:40
09:453,3 °C 1,7 °C 2,8 °C 46 % 1024,0 hPa 0,0 mm - 7,9 km/h 20,9 km/h S 454,0 W/qm 1,1 ja 09:45
09:503,5 °C 1,7 °C 2,8 °C 45 % 1023,9 hPa 0,0 mm - 9,7 km/h 20,9 km/h SSO 466,0 W/qm 1,1 ja 09:50
09:553,8 °C 1,7 °C 2,8 °C 44 % 1023,9 hPa 0,0 mm - 9,7 km/h 20,9 km/h S 482,0 W/qm 1,2 ja 09:55
UhrzeitTemperaturBoden 10cmBoden 20cmFeuchteLuftdruckNiederschlagEvapotranspirationWindWindböenWindrichtungSolarstrahlungUV-IndexSonne?Uhrzeit
10:004,0 °C 1,7 °C 2,8 °C 42 % 1023,8 hPa 0,0 mm - 7,9 km/h 19,4 km/h O 483,0 W/qm 1,2 ja 10:00
10:054,3 °C 1,7 °C 2,8 °C 43 % 1023,8 hPa 0,0 mm 0,3 mm 6,5 km/h 19,4 km/h OSO 492,0 W/qm 1,2 ja 10:05
10:104,6 °C 1,7 °C 2,8 °C 41 % 1023,8 hPa 0,0 mm 0,3 mm 7,9 km/h 19,4 km/h S 508,0 W/qm 1,3 ja 10:10
10:154,6 °C 1,7 °C 2,8 °C 40 % 1023,8 hPa 0,0 mm - 9,7 km/h 20,9 km/h O 517,0 W/qm 1,3 ja 10:15
10:204,7 °C 2,2 °C 2,8 °C 41 % 1023,6 hPa 0,0 mm - 9,7 km/h 20,9 km/h SSO 531,0 W/qm 1,4 ja 10:20
10:255,1 °C 2,2 °C 2,8 °C 40 % 1023,6 hPa 0,0 mm - 7,9 km/h 32,0 km/h O 540,0 W/qm 1,4 ja 10:25
10:305,2 °C 2,2 °C 2,8 °C 38 % 1023,6 hPa 0,0 mm - 9,7 km/h 32,0 km/h SSO 554,0 W/qm 1,4 ja 10:30
10:355,2 °C 2,2 °C 2,8 °C 39 % 1023,5 hPa 0,0 mm - 9,7 km/h 25,9 km/h SSW 559,0 W/qm 1,5 ja 10:35
10:405,8 °C 2,2 °C 2,8 °C 38 % 1023,3 hPa 0,0 mm - 9,7 km/h 25,9 km/h SSW 566,0 W/qm 1,5 ja 10:40
10:455,8 °C 2,2 °C 2,8 °C 37 % 1023,4 hPa 0,0 mm - 7,9 km/h 25,9 km/h O 577,0 W/qm 1,6 ja 10:45
10:505,8 °C 2,2 °C 2,8 °C 36 % 1023,3 hPa 0,0 mm - 9,7 km/h 25,9 km/h S 584,0 W/qm 1,6 ja 10:50
10:556,3 °C 2,2 °C 2,8 °C 37 % 1023,2 hPa 0,0 mm - 9,7 km/h 25,9 km/h SO 591,0 W/qm 1,6 ja 10:55
11:006,3 °C 2,2 °C 2,8 °C 35 % 1023,1 hPa 0,0 mm - 9,7 km/h 25,9 km/h SSO 596,0 W/qm 1,7 ja 11:00
11:056,7 °C 2,2 °C 2,8 °C 35 % 1023,0 hPa 0,0 mm 0,5 mm 7,9 km/h 25,9 km/h S 601,0 W/qm 1,7 ja 11:05
11:107,0 °C 2,2 °C 2,8 °C 35 % 1022,9 hPa 0,0 mm 0,5 mm 7,9 km/h 22,7 km/h SSO 610,0 W/qm 1,7 ja 11:10
11:157,4 °C 2,2 °C 2,8 °C 33 % 1022,8 hPa 0,0 mm - 6,5 km/h 22,7 km/h SSO 612,0 W/qm 1,8 ja 11:15
11:207,1 °C 2,2 °C 2,8 °C 32 % 1023,0 hPa 0,0 mm - 9,7 km/h 19,4 km/h SSO 619,0 W/qm 1,8 ja 11:20
11:256,9 °C 2,2 °C 2,8 °C 32 % 1022,9 hPa 0,0 mm - 11,2 km/h 33,8 km/h SSO 621,0 W/qm 1,8 ja 11:25
11:307,4 °C 2,2 °C 2,8 °C 32 % 1022,8 hPa 0,0 mm - 7,9 km/h 33,8 km/h S 628,0 W/qm 1,8 ja 11:30
11:357,3 °C 2,2 °C 2,8 °C 32 % 1022,8 hPa 0,0 mm - 6,5 km/h 33,8 km/h SO 633,0 W/qm 1,9 ja 11:35
11:407,4 °C 2,2 °C 2,8 °C 32 % 1022,8 hPa 0,0 mm - 6,5 km/h 22,7 km/h SO 635,0 W/qm 1,9 ja 11:40
11:457,8 °C 2,2 °C 2,8 °C 31 % 1022,6 hPa 0,0 mm - 7,9 km/h 22,7 km/h SSO 642,0 W/qm 1,9 ja 11:45
11:507,8 °C 2,2 °C 2,8 °C 30 % 1022,6 hPa 0,0 mm - 7,9 km/h 22,7 km/h SSO 642,0 W/qm 1,9 ja 11:50
11:558,1 °C 2,2 °C 2,8 °C 30 % 1022,5 hPa 0,0 mm - 9,7 km/h 22,7 km/h SSO 645,0 W/qm 1,9 ja 11:55
UhrzeitTemperaturBoden 10cmBoden 20cmFeuchteLuftdruckNiederschlagEvapotranspirationWindWindböenWindrichtungSolarstrahlungUV-IndexSonne?Uhrzeit
12:008,3 °C 2,2 °C 2,8 °C 30 % 1022,4 hPa 0,0 mm - 9,7 km/h 25,9 km/h NO 636,0 W/qm 1,9 ja 12:00
12:058,2 °C 2,2 °C 2,8 °C 30 % 1022,4 hPa 0,0 mm 0,9 mm 7,9 km/h 25,9 km/h ONO 640,0 W/qm 1,9 ja 12:05
12:108,2 °C 2,2 °C 2,8 °C 30 % 1022,3 hPa 0,0 mm 0,9 mm 7,9 km/h 25,9 km/h ONO 652,0 W/qm 2,0 ja 12:10
12:158,2 °C 2,2 °C 2,8 °C 29 % 1022,3 hPa 0,0 mm - 7,9 km/h 22,7 km/h SSO 656,0 W/qm 2,0 ja 12:15
12:208,3 °C 2,2 °C 2,8 °C 29 % 1022,3 hPa 0,0 mm - 7,9 km/h 27,4 km/h SO 656,0 W/qm 2,0 ja 12:20
12:258,4 °C 2,2 °C 2,8 °C 29 % 1022,1 hPa 0,0 mm - 7,9 km/h 27,4 km/h S 659,0 W/qm 2,0 ja 12:25
12:308,7 °C 2,8 °C 2,8 °C 29 % 1021,9 hPa 0,0 mm - 7,9 km/h 27,4 km/h SO 659,0 W/qm 2,0 ja 12:30
12:358,7 °C 2,8 °C 2,8 °C 27 % 1021,9 hPa 0,0 mm - 9,7 km/h 20,9 km/h SO 661,0 W/qm 2,0 ja 12:35
12:408,6 °C 2,8 °C 2,8 °C 27 % 1021,7 hPa 0,0 mm - 9,7 km/h 20,9 km/h S 661,0 W/qm 2,0 ja 12:40
12:459,1 °C 2,8 °C 2,8 °C 28 % 1021,7 hPa 0,0 mm - 7,9 km/h 22,7 km/h S 661,0 W/qm 2,0 ja 12:45
12:509,4 °C 2,8 °C 2,8 °C 28 % 1021,5 hPa 0,0 mm - 7,9 km/h 22,7 km/h S 659,0 W/qm 2,0 ja 12:50
12:559,5 °C 2,8 °C 2,8 °C 27 % 1021,6 hPa 0,0 mm - 7,9 km/h 22,7 km/h SSO 657,0 W/qm 2,0 ja 12:55
13:009,8 °C 2,8 °C 2,8 °C 27 % 1021,5 hPa 0,0 mm - 4,7 km/h 20,9 km/h SSO 656,0 W/qm 2,0 ja 13:00
13:059,3 °C 2,8 °C 2,8 °C 26 % 1021,4 hPa 0,0 mm 1,2 mm 6,5 km/h 20,9 km/h SSO 654,0 W/qm 1,9 ja 13:05
13:109,7 °C 2,8 °C 2,8 °C 27 % 1021,2 hPa 0,0 mm 1,2 mm 7,9 km/h 25,9 km/h SW 652,0 W/qm 1,9 ja 13:10
13:159,7 °C 2,8 °C 2,8 °C 27 % 1021,2 hPa 0,0 mm - 7,9 km/h 25,9 km/h S 650,0 W/qm 1,9 ja 13:15
13:209,9 °C 2,8 °C 2,8 °C 27 % 1021,0 hPa 0,0 mm - 9,7 km/h 25,9 km/h SSO 643,0 W/qm 1,9 ja 13:20
13:259,8 °C 2,8 °C 2,8 °C 27 % 1021,0 hPa 0,0 mm - 7,9 km/h 22,7 km/h O 629,0 W/qm 1,8 ja 13:25
13:309,5 °C 2,8 °C 2,8 °C 28 % 1021,1 hPa 0,0 mm - 6,5 km/h 22,7 km/h S 633,0 W/qm 1,8 ja 13:30
13:359,7 °C 3,3 °C 2,8 °C 29 % 1021,1 hPa 0,0 mm - 6,5 km/h 22,7 km/h NO 626,0 W/qm 1,8 ja 13:35
13:409,5 °C 3,3 °C 2,8 °C 29 % 1021,1 hPa 0,0 mm - 6,5 km/h 22,7 km/h SSO 621,0 W/qm 1,8 ja 13:40
13:459,6 °C 3,3 °C 2,8 °C 28 % 1021,0 hPa 0,0 mm - 6,5 km/h 20,9 km/h SO 613,0 W/qm 1,7 ja 13:45
13:5010,2 °C 3,3 °C 2,8 °C 28 % 1020,9 hPa 0,0 mm - 4,7 km/h 20,9 km/h SO 608,0 W/qm 1,7 ja 13:50
13:5510,2 °C 3,3 °C 2,8 °C 27 % 1020,8 hPa 0,0 mm - 6,5 km/h 17,6 km/h NO 605,0 W/qm 1,7 ja 13:55
UhrzeitTemperaturBoden 10cmBoden 20cmFeuchteLuftdruckNiederschlagEvapotranspirationWindWindböenWindrichtungSolarstrahlungUV-IndexSonne?Uhrzeit
14:0010,2 °C 3,3 °C 2,8 °C 27 % 1020,7 hPa 0,0 mm - 7,9 km/h 16,2 km/h S 598,0 W/qm 1,6 ja 14:00
14:0510,1 °C 3,3 °C 2,8 °C 26 % 1020,8 hPa 0,0 mm 1,6 mm 7,9 km/h 17,6 km/h SO 592,0 W/qm 1,6 ja 14:05
14:1010,1 °C 3,3 °C 2,8 °C 27 % 1020,6 hPa 0,0 mm 1,6 mm 7,9 km/h 25,9 km/h SSO 589,0 W/qm 1,6 ja 14:10
14:1510,3 °C 3,3 °C 2,8 °C 30 % 1020,5 hPa 0,0 mm - 6,5 km/h 25,9 km/h NW 582,0 W/qm 1,5 ja 14:15
14:2010,5 °C 3,3 °C 3,3 °C 27 % 1020,4 hPa 0,0 mm - 6,5 km/h 25,9 km/h NO 575,0 W/qm 1,5 ja 14:20
14:2510,4 °C 3,3 °C 3,3 °C 26 % 1020,3 hPa 0,0 mm - 6,5 km/h 17,6 km/h S 566,0 W/qm 1,5 ja 14:25
14:3010,3 °C 3,3 °C 3,3 °C 26 % 1020,5 hPa 0,0 mm - 6,5 km/h 17,6 km/h SSO 555,0 W/qm 1,4 ja 14:30
14:3510,3 °C 3,3 °C 3,3 °C 27 % 1020,5 hPa 0,0 mm - 6,5 km/h 22,7 km/h SSO 550,0 W/qm 1,4 ja 14:35
14:4010,4 °C 3,9 °C 3,3 °C 26 % 1020,4 hPa 0,0 mm - 7,9 km/h 22,7 km/h SSW 540,0 W/qm 1,3 ja 14:40
14:4510,6 °C 3,9 °C 3,3 °C 26 % 1020,3 hPa 0,0 mm - 6,5 km/h 22,7 km/h SW 531,0 W/qm 1,3 ja 14:45
14:5010,8 °C 3,9 °C 3,3 °C 26 % 1020,2 hPa 0,0 mm - 3,2 km/h 19,4 km/h SSW 520,0 W/qm 1,3 ja 14:50
14:5510,9 °C 3,9 °C 3,3 °C 27 % 1020,2 hPa 0,0 mm - 3,2 km/h 19,4 km/h SSO 512,0 W/qm 1,2 ja 14:55
15:0010,8 °C 3,9 °C 3,3 °C 26 % 1020,2 hPa 0,0 mm - 6,5 km/h 14,4 km/h N 499,0 W/qm 1,2 ja 15:00
15:0510,7 °C 3,9 °C 3,3 °C 27 % 1020,1 hPa 0,0 mm 1,9 mm 6,5 km/h 16,2 km/h OSO 489,0 W/qm 1,1 ja 15:05
15:1010,8 °C 3,9 °C 3,3 °C 26 % 1020,1 hPa 0,0 mm 1,9 mm 6,5 km/h 16,2 km/h SSO 478,0 W/qm 1,1 ja 15:10
15:1510,8 °C 3,9 °C 3,3 °C 27 % 1020,0 hPa 0,0 mm - 7,9 km/h 16,2 km/h N 469,0 W/qm 1,1 ja 15:15
15:2010,7 °C 3,9 °C 3,3 °C 26 % 1020,1 hPa 0,0 mm - 6,5 km/h 19,4 km/h NNW 459,0 W/qm 1,0 ja 15:20
15:2510,7 °C 3,9 °C 3,3 °C 26 % 1019,9 hPa 0,0 mm - 4,7 km/h 19,4 km/h S 446,0 W/qm 1,0 ja 15:25
15:3010,6 °C 3,9 °C 3,3 °C 26 % 1020,0 hPa 0,0 mm - 4,7 km/h 19,4 km/h NNO 432,0 W/qm 0,9 ja 15:30
15:3510,7 °C 3,9 °C 3,3 °C 26 % 1019,9 hPa 0,0 mm - 6,5 km/h 16,2 km/h OSO 420,0 W/qm 0,9 ja 15:35
15:4010,6 °C 3,9 °C 3,3 °C 26 % 1019,9 hPa 0,0 mm - 4,7 km/h 20,9 km/h SO 406,0 W/qm 0,8 ja 15:40
15:4510,7 °C 3,9 °C 3,3 °C 26 % 1019,7 hPa 0,0 mm - 4,7 km/h 20,9 km/h S 396,0 W/qm 0,8 ja 15:45
15:5010,7 °C 3,9 °C 3,3 °C 27 % 1019,8 hPa 0,0 mm - 6,5 km/h 19,4 km/h SSW 378,0 W/qm 0,8 ja 15:50
15:5510,5 °C 3,9 °C 3,3 °C 26 % 1019,7 hPa 0,0 mm - 6,5 km/h 19,4 km/h SO 373,0 W/qm 0,7 ja 15:55
UhrzeitTemperaturBoden 10cmBoden 20cmFeuchteLuftdruckNiederschlagEvapotranspirationWindWindböenWindrichtungSolarstrahlungUV-IndexSonne?Uhrzeit
16:0010,6 °C 3,9 °C 3,3 °C 26 % 1019,7 hPa 0,0 mm - 7,9 km/h 19,4 km/h SSO 357,0 W/qm 0,7 ja 16:00
16:0510,7 °C 3,9 °C 3,3 °C 26 % 1019,6 hPa 0,0 mm 2,1 mm 6,5 km/h 17,6 km/h SSO 345,0 W/qm 0,6 ja 16:05
16:1010,5 °C 3,9 °C 3,3 °C 27 % 1019,6 hPa 0,0 mm 2,1 mm 6,5 km/h 17,6 km/h SSO 327,0 W/qm 0,6 ja 16:10
16:1510,4 °C 3,9 °C 3,3 °C 26 % 1019,5 hPa 0,0 mm - 6,5 km/h 17,6 km/h S 315,0 W/qm 0,5 ja 16:15
16:2010,4 °C 3,9 °C 3,3 °C 26 % 1019,4 hPa 0,0 mm - 7,9 km/h 17,6 km/h SSO 299,0 W/qm 0,5 ja 16:20
16:2510,4 °C 3,9 °C 3,3 °C 27 % 1019,5 hPa 0,0 mm - 7,9 km/h 24,1 km/h SSO 281,0 W/qm 0,5 ja 16:25
16:3010,4 °C 3,9 °C 3,3 °C 27 % 1019,5 hPa 0,0 mm - 4,7 km/h 24,1 km/h SO 265,0 W/qm 0,0 ja 16:30
16:3510,4 °C 3,9 °C 3,3 °C 26 % 1019,4 hPa 0,0 mm - 6,5 km/h 24,1 km/h NO 246,0 W/qm 0,0 ja 16:35
16:4010,4 °C 3,9 °C 3,3 °C 26 % 1019,5 hPa 0,0 mm - 4,7 km/h 17,6 km/h NO 229,0 W/qm 0,0 ja 16:40
16:4510,4 °C 3,9 °C 3,3 °C 27 % 1019,4 hPa 0,0 mm - 4,7 km/h 17,6 km/h SSO 209,0 W/qm 0,0 nein 16:45
16:5010,3 °C 3,9 °C 3,3 °C 27 % 1019,4 hPa 0,0 mm - 4,7 km/h 16,2 km/h S 190,0 W/qm 0,0 nein 16:50
16:5510,3 °C 3,9 °C 3,3 °C 28 % 1019,3 hPa 0,0 mm - 4,7 km/h 16,2 km/h S 174,0 W/qm 0,0 nein 16:55
17:0010,3 °C 3,9 °C 3,3 °C 28 % 1019,3 hPa 0,0 mm - 3,2 km/h 17,6 km/h O 155,0 W/qm 0,0 nein 17:00
17:0510,2 °C 3,9 °C 3,3 °C 28 % 1019,3 hPa 0,0 mm 2,3 mm 3,2 km/h 17,6 km/h SO 127,0 W/qm 0,0 nein 17:05
17:1010,0 °C 3,9 °C 3,3 °C 28 % 1019,2 hPa 0,0 mm 2,3 mm 3,2 km/h 17,6 km/h SSO 47,0 W/qm 0,0 nein 17:10
17:159,7 °C 3,9 °C 3,3 °C 30 % 1019,3 hPa 0,0 mm - 3,2 km/h 16,2 km/h NW 42,0 W/qm 0,0 nein 17:15
17:209,2 °C 3,9 °C 3,3 °C 32 % 1019,4 hPa 0,0 mm - 3,2 km/h 16,2 km/h NNO 35,0 W/qm 0,0 nein 17:20
17:259,0 °C 3,9 °C 3,3 °C 33 % 1019,6 hPa 0,0 mm - 3,2 km/h 16,2 km/h OSO 33,0 W/qm 0,0 nein 17:25
17:308,9 °C 3,9 °C 3,3 °C 34 % 1019,5 hPa 0,0 mm - 3,2 km/h 11,2 km/h SSW 30,0 W/qm 0,0 nein 17:30
17:358,7 °C 3,9 °C 3,3 °C 35 % 1019,5 hPa 0,0 mm - 3,2 km/h 9,7 km/h N 28,0 W/qm 0,0 nein 17:35
17:408,4 °C 3,9 °C 3,3 °C 35 % 1019,6 hPa 0,0 mm - 3,2 km/h 9,7 km/h NO 23,0 W/qm 0,0 nein 17:40
17:458,3 °C 3,9 °C 3,3 °C 35 % 1019,7 hPa 0,0 mm - 3,2 km/h 13,0 km/h NO 21,0 W/qm 0,0 nein 17:45
17:508,0 °C 3,9 °C 3,3 °C 36 % 1019,8 hPa 0,0 mm - 1,4 km/h 13,0 km/h O 16,0 W/qm 0,0 nein 17:50
17:557,8 °C 3,9 °C 3,3 °C 37 % 1019,8 hPa 0,0 mm - 3,2 km/h 11,2 km/h N 12,0 W/qm 0,0 nein 17:55
UhrzeitTemperaturBoden 10cmBoden 20cmFeuchteLuftdruckNiederschlagEvapotranspirationWindWindböenWindrichtungSolarstrahlungUV-IndexSonne?Uhrzeit
18:007,7 °C 3,9 °C 3,3 °C 37 % 1019,9 hPa 0,0 mm - 4,7 km/h 14,4 km/h OSO 9,0 W/qm 0,0 nein 18:00
18:057,4 °C 3,9 °C 3,3 °C 38 % 1019,9 hPa 0,0 mm 2,4 mm 3,2 km/h 14,4 km/h S 7,0 W/qm 0,0 nein 18:05
18:107,3 °C 3,9 °C 3,3 °C 37 % 1020,0 hPa 0,0 mm 2,4 mm 3,2 km/h 14,4 km/h NW 5,0 W/qm 0,0 nein 18:10
18:157,1 °C 3,9 °C 3,3 °C 38 % 1020,1 hPa 0,0 mm - 1,4 km/h 11,2 km/h N 5,0 W/qm 0,0 nein 18:15
18:206,7 °C 3,9 °C 3,3 °C 40 % 1020,1 hPa 0,0 mm - 1,4 km/h 7,9 km/h ONO 0,0 W/qm 0,0 nein 18:20
18:256,7 °C 3,9 °C 3,3 °C 39 % 1020,1 hPa 0,0 mm - 1,4 km/h 7,9 km/h SSO 0,0 W/qm 0,0 nein 18:25
18:306,7 °C 3,9 °C 3,3 °C 38 % 1020,2 hPa 0,0 mm - 3,2 km/h 9,7 km/h NO 0,0 W/qm 0,0 nein 18:30
18:356,7 °C 3,9 °C 3,3 °C 38 % 1020,2 hPa 0,0 mm - 3,2 km/h 11,2 km/h NNW 0,0 W/qm 0,0 nein 18:35
18:406,4 °C 3,9 °C 3,3 °C 38 % 1020,3 hPa 0,0 mm - 1,4 km/h 11,2 km/h NNO 0,0 W/qm 0,0 nein 18:40
18:456,2 °C 3,9 °C 3,3 °C 39 % 1020,3 hPa 0,0 mm - 1,4 km/h 11,2 km/h NNO 0,0 W/qm 0,0 nein 18:45
18:506,2 °C 3,9 °C 3,3 °C 39 % 1020,3 hPa 0,0 mm - 3,2 km/h 11,2 km/h ONO 0,0 W/qm 0,0 nein 18:50
18:555,8 °C 3,9 °C 3,9 °C 41 % 1020,5 hPa 0,0 mm - 3,2 km/h 11,2 km/h N 0,0 W/qm 0,0 nein 18:55
19:005,4 °C 3,9 °C 3,9 °C 43 % 1020,6 hPa 0,0 mm - 1,4 km/h 11,2 km/h O 0,0 W/qm 0,0 nein 19:00
19:055,2 °C 3,9 °C 3,9 °C 42 % 1020,6 hPa 0,0 mm 2,4 mm 1,4 km/h 11,2 km/h O 0,0 W/qm 0,0 nein 19:05
19:105,4 °C 3,9 °C 3,9 °C 41 % 1020,7 hPa 0,0 mm 2,4 mm 1,4 km/h 7,9 km/h NO 0,0 W/qm 0,0 nein 19:10
19:155,2 °C 3,9 °C 3,9 °C 43 % 1020,7 hPa 0,0 mm - 1,4 km/h 7,9 km/h ONO 0,0 W/qm 0,0 nein 19:15
19:204,7 °C 3,9 °C 3,9 °C 44 % 1020,8 hPa 0,0 mm - 1,4 km/h 9,7 km/h ONO 0,0 W/qm 0,0 nein 19:20
19:254,5 °C 3,9 °C 3,9 °C 44 % 1021,0 hPa 0,0 mm - 0,0 km/h 9,7 km/h NNO 0,0 W/qm 0,0 nein 19:25
19:304,3 °C 3,9 °C 3,9 °C 45 % 1021,0 hPa 0,0 mm - 1,4 km/h 6,5 km/h ONO 0,0 W/qm 0,0 nein 19:30
19:353,9 °C 3,9 °C 3,9 °C 46 % 1021,0 hPa 0,0 mm - 1,4 km/h 9,7 km/h ONO 0,0 W/qm 0,0 nein 19:35
19:403,4 °C 3,9 °C 3,9 °C 47 % 1021,0 hPa 0,0 mm - 1,4 km/h 9,7 km/h NNO 0,0 W/qm 0,0 nein 19:40
19:453,7 °C 3,9 °C 3,9 °C 46 % 1021,1 hPa 0,0 mm - 1,4 km/h 9,7 km/h WSW 0,0 W/qm 0,0 nein 19:45
19:504,1 °C 3,9 °C 3,9 °C 44 % 1021,0 hPa 0,0 mm - 1,4 km/h 7,9 km/h ONO 0,0 W/qm 0,0 nein 19:50
19:554,2 °C 3,9 °C 3,9 °C 43 % 1021,0 hPa 0,0 mm - 3,2 km/h 7,9 km/h NNO 0,0 W/qm 0,0 nein 19:55
UhrzeitTemperaturBoden 10cmBoden 20cmFeuchteLuftdruckNiederschlagEvapotranspirationWindWindböenWindrichtungSolarstrahlungUV-IndexSonne?Uhrzeit
20:004,2 °C 3,9 °C 3,9 °C 42 % 1021,1 hPa 0,0 mm - 3,2 km/h 14,4 km/h N 0,0 W/qm 0,0 nein 20:00
20:054,2 °C 3,9 °C 3,9 °C 41 % 1021,2 hPa 0,0 mm 2,4 mm 3,2 km/h 14,4 km/h N 0,0 W/qm 0,0 nein 20:05
20:104,2 °C 3,9 °C 3,9 °C 40 % 1021,3 hPa 0,0 mm 2,4 mm 1,4 km/h 7,9 km/h WSW 0,0 W/qm 0,0 nein 20:10
20:154,1 °C 3,9 °C 3,9 °C 40 % 1021,4 hPa 0,0 mm - 1,4 km/h 9,7 km/h SW 0,0 W/qm 0,0 nein 20:15
20:203,8 °C 3,9 °C 3,9 °C 40 % 1021,5 hPa 0,0 mm - 1,4 km/h 9,7 km/h SSO 0,0 W/qm 0,0 nein 20:20
20:253,8 °C 3,9 °C 3,9 °C 40 % 1021,5 hPa 0,0 mm - 1,4 km/h 7,9 km/h SSW 0,0 W/qm 0,0 nein 20:25
20:303,7 °C 3,9 °C 3,9 °C 40 % 1021,6 hPa 0,0 mm - 1,4 km/h 7,9 km/h SSW 0,0 W/qm 0,0 nein 20:30
20:353,5 °C 3,9 °C 3,9 °C 41 % 1021,5 hPa 0,0 mm - 1,4 km/h 7,9 km/h SSW 0,0 W/qm 0,0 nein 20:35
20:403,1 °C 3,3 °C 3,9 °C 42 % 1021,7 hPa 0,0 mm - 1,4 km/h 6,5 km/h SSW 0,0 W/qm 0,0 nein 20:40
20:452,7 °C 3,3 °C 3,9 °C 44 % 1021,7 hPa 0,0 mm - 0,0 km/h 6,5 km/h SSW 0,0 W/qm 0,0 nein 20:45
20:502,6 °C 3,3 °C 3,9 °C 43 % 1021,9 hPa 0,0 mm - 0,0 km/h 4,7 km/h SSW 0,0 W/qm 0,0 nein 20:50
20:552,1 °C 3,3 °C 3,9 °C 46 % 1021,8 hPa 0,0 mm - 0,0 km/h 4,7 km/h SSW 0,0 W/qm 0,0 nein 20:55
21:001,8 °C 3,3 °C 3,9 °C 47 % 1022,0 hPa 0,0 mm - 0,0 km/h 4,7 km/h W 0,0 W/qm 0,0 nein 21:00
21:051,9 °C 3,3 °C 3,9 °C 45 % 1022,0 hPa 0,0 mm 2,4 mm 0,0 km/h 3,2 km/h W 0,0 W/qm 0,0 nein 21:05
21:102,1 °C 3,3 °C 3,9 °C 44 % 1021,9 hPa 0,0 mm 2,4 mm 0,0 km/h 4,7 km/h OSO 0,0 W/qm 0,0 nein 21:10
21:152,0 °C 3,3 °C 3,9 °C 46 % 1021,9 hPa 0,0 mm - 0,0 km/h 4,7 km/h SW 0,0 W/qm 0,0 nein 21:15
21:202,0 °C 3,3 °C 3,9 °C 44 % 1022,1 hPa 0,0 mm - 1,4 km/h 4,7 km/h S 0,0 W/qm 0,0 nein 21:20
21:251,9 °C 3,3 °C 3,9 °C 46 % 1022,0 hPa 0,0 mm - 1,4 km/h 6,5 km/h NO 0,0 W/qm 0,0 nein 21:25
21:301,9 °C 3,3 °C 3,9 °C 45 % 1022,0 hPa 0,0 mm - 0,0 km/h 6,5 km/h N 0,0 W/qm 0,0 nein 21:30
21:351,6 °C 3,3 °C 3,9 °C 45 % 1021,9 hPa 0,0 mm - 0,0 km/h 6,5 km/h NNO 0,0 W/qm 0,0 nein 21:35
21:401,9 °C 3,3 °C 3,9 °C 43 % 1021,9 hPa 0,0 mm - 0,0 km/h 4,7 km/h S 0,0 W/qm 0,0 nein 21:40
21:452,3 °C 3,3 °C 3,9 °C 42 % 1021,9 hPa 0,0 mm - 1,4 km/h 7,9 km/h W 0,0 W/qm 0,0 nein 21:45
21:502,3 °C 3,3 °C 3,3 °C 42 % 1021,9 hPa 0,0 mm - 1,4 km/h 7,9 km/h WSW 0,0 W/qm 0,0 nein 21:50
21:552,0 °C 3,3 °C 3,3 °C 43 % 1022,1 hPa 0,0 mm - 1,4 km/h 7,9 km/h O 0,0 W/qm 0,0 nein 21:55
UhrzeitTemperaturBoden 10cmBoden 20cmFeuchteLuftdruckNiederschlagEvapotranspirationWindWindböenWindrichtungSolarstrahlungUV-IndexSonne?Uhrzeit
22:001,4 °C 3,3 °C 3,3 °C 47 % 1022,0 hPa 0,0 mm - 1,4 km/h 4,7 km/h O 0,0 W/qm 0,0 nein 22:00
22:051,2 °C 3,3 °C 3,3 °C 46 % 1022,2 hPa 0,0 mm 2,4 mm 0,0 km/h 4,7 km/h OSO 0,0 W/qm 0,0 nein 22:05
22:101,2 °C 3,3 °C 3,3 °C 46 % 1022,3 hPa 0,0 mm 2,4 mm 0,0 km/h 4,7 km/h SW 0,0 W/qm 0,0 nein 22:10
22:150,9 °C 3,3 °C 3,3 °C 47 % 1022,2 hPa 0,0 mm - 0,0 km/h 4,7 km/h SW 0,0 W/qm 0,0 nein 22:15
22:200,4 °C 3,3 °C 3,3 °C 51 % 1022,3 hPa 0,0 mm - 0,0 km/h 3,2 km/h SW 0,0 W/qm 0,0 nein 22:20
22:250,1 °C 3,3 °C 3,3 °C 52 % 1022,3 hPa 0,0 mm - 0,0 km/h 3,2 km/h SW 0,0 W/qm 0,0 nein 22:25
22:30-0,2 °C 3,3 °C 3,3 °C 55 % 1022,4 hPa 0,0 mm - 0,0 km/h 4,7 km/h SW 0,0 W/qm 0,0 nein 22:30
22:35-0,5 °C 3,3 °C 3,3 °C 55 % 1022,4 hPa 0,0 mm - 0,0 km/h 4,7 km/h SW 0,0 W/qm 0,0 nein 22:35
22:40-0,7 °C 3,3 °C 3,3 °C 56 % 1022,5 hPa 0,0 mm - 0,0 km/h 4,7 km/h SW 0,0 W/qm 0,0 nein 22:40
22:45-0,9 °C 3,3 °C 3,3 °C 57 % 1022,6 hPa 0,0 mm - 0,0 km/h 3,2 km/h SW 0,0 W/qm 0,0 nein 22:45
22:50-1,2 °C 3,3 °C 3,3 °C 59 % 1022,6 hPa 0,0 mm - 0,0 km/h 3,2 km/h SW 0,0 W/qm 0,0 nein 22:50
22:55-1,4 °C 3,3 °C 3,3 °C 59 % 1022,8 hPa 0,0 mm - 0,0 km/h 3,2 km/h SW 0,0 W/qm 0,0 nein 22:55
23:00-1,6 °C 3,3 °C 3,3 °C 60 % 1022,7 hPa 0,0 mm - 0,0 km/h 3,2 km/h SW 0,0 W/qm 0,0 nein 23:00
23:05-1,8 °C 3,3 °C 3,3 °C 60 % 1022,8 hPa 0,0 mm 2,4 mm 0,0 km/h 1,4 km/h SW 0,0 W/qm 0,0 nein 23:05
23:10-1,8 °C 3,3 °C 3,3 °C 61 % 1022,7 hPa 0,0 mm 2,4 mm 0,0 km/h 0,0 km/h SW 0,0 W/qm 0,0 nein 23:10
23:15-2,1 °C 3,3 °C 3,3 °C 62 % 1022,8 hPa 0,0 mm - 0,0 km/h 0,0 km/h SW 0,0 W/qm 0,0 nein 23:15
23:20-1,9 °C 3,3 °C 3,3 °C 62 % 1022,6 hPa 0,0 mm - 0,0 km/h 1,4 km/h SW 0,0 W/qm 0,0 nein 23:20
23:25-2,2 °C 3,3 °C 3,3 °C 62 % 1022,8 hPa 0,0 mm - 0,0 km/h 4,7 km/h SW 0,0 W/qm 0,0 nein 23:25
23:30-2,2 °C 3,3 °C 3,3 °C 62 % 1022,9 hPa 0,0 mm - 0,0 km/h 4,7 km/h SW 0,0 W/qm 0,0 nein 23:30
23:35-2,1 °C 3,3 °C 3,3 °C 62 % 1023,0 hPa 0,0 mm - 0,0 km/h 4,7 km/h SW 0,0 W/qm 0,0 nein 23:35
23:40-2,2 °C 2,8 °C 3,3 °C 63 % 1023,0 hPa 0,0 mm - 0,0 km/h 4,7 km/h SW 0,0 W/qm 0,0 nein 23:40
23:45-2,3 °C 2,8 °C 3,3 °C 64 % 1023,1 hPa 0,0 mm - 0,0 km/h 4,7 km/h SW 0,0 W/qm 0,0 nein 23:45
23:50-2,5 °C 2,8 °C 3,3 °C 65 % 1023,1 hPa 0,0 mm - 0,0 km/h 3,2 km/h SW 0,0 W/qm 0,0 nein 23:50
23:55-2,6 °C 2,8 °C 3,3 °C 65 % 1023,2 hPa 0,0 mm - 0,0 km/h 0,0 km/h SW 0,0 W/qm 0,0 nein 23:55
Gesamt: 3,4 °C 3,0 °C 3,2 °C 51 % 1022,9 hPa 0,0 mm 50,7 mm 3,3 km/h 11,9 km/h 0 181,5 W/qm 0,5 ja

Insgesamt 288 Zeilen mal 13 Spalten = 3744 Werte werden angezeigt.

www.wetter-rosstal.de   •   www.wetter-franken.de   •   www.lightningmaps.org   •   Start   •   Kontakt / Datenschutz   •   PC-Kümmerer